sensor_id;sensor_type;location;lat;lon;timestamp;pressure;altitude;pressure_sealevel;temperature;humidity
2875;BME280;1445;52.600;13.328;2023-11-18T00:02:14;101690.31;;;4.96;nan
2875;BME280;1445;52.600;13.328;2023-11-18T00:04:39;101688.06;;;4.93;nan
2875;BME280;1445;52.600;13.328;2023-11-18T00:07:05;101704.44;;;4.93;nan
2875;BME280;1445;52.600;13.328;2023-11-18T00:09:30;101698.88;;;5.00;nan
2875;BME280;1445;52.600;13.328;2023-11-18T00:11:56;101712.78;;;4.98;nan
2875;BME280;1445;52.600;13.328;2023-11-18T00:14:21;101713.97;;;5.02;nan
2875;BME280;1445;52.600;13.328;2023-11-18T00:16:46;101712.41;;;4.95;nan
2875;BME280;1445;52.600;13.328;2023-11-18T00:19:12;101712.06;;;5.03;nan
2875;BME280;1445;52.600;13.328;2023-11-18T00:21:37;101716.81;;;4.96;nan
2875;BME280;1445;52.600;13.328;2023-11-18T00:24:02;101720.59;;;4.95;nan
2875;BME280;1445;52.600;13.328;2023-11-18T00:26:28;101718.72;;;4.95;nan
2875;BME280;1445;52.600;13.328;2023-11-18T00:28:54;101725.22;;;4.94;nan
2875;BME280;1445;52.600;13.328;2023-11-18T00:31:19;101716.47;;;4.81;nan
2875;BME280;1445;52.600;13.328;2023-11-18T00:33:44;101726.22;;;4.76;nan
2875;BME280;1445;52.600;13.328;2023-11-18T00:36:10;101732.38;;;4.84;nan
2875;BME280;1445;52.600;13.328;2023-11-18T00:38:35;101735.00;;;4.78;nan
2875;BME280;1445;52.600;13.328;2023-11-18T00:41:01;101740.56;;;4.84;nan
2875;BME280;1445;52.600;13.328;2023-11-18T00:43:26;101749.75;;;4.77;nan
2875;BME280;1445;52.600;13.328;2023-11-18T00:45:51;101751.25;;;4.73;nan
2875;BME280;1445;52.600;13.328;2023-11-18T00:48:16;101750.91;;;4.93;nan
2875;BME280;1445;52.600;13.328;2023-11-18T00:50:42;101753.88;;;4.80;nan
2875;BME280;1445;52.600;13.328;2023-11-18T00:53:07;101773.25;;;4.78;nan
2875;BME280;1445;52.600;13.328;2023-11-18T00:55:32;101755.69;;;4.74;nan
2875;BME280;1445;52.600;13.328;2023-11-18T00:57:58;101769.34;;;4.74;nan
2875;BME280;1445;52.600;13.328;2023-11-18T01:00:23;101772.28;;;4.73;nan
2875;BME280;1445;52.600;13.328;2023-11-18T01:02:51;101774.56;;;4.76;nan
2875;BME280;1445;52.600;13.328;2023-11-18T01:05:18;101780.00;;;4.76;nan
2875;BME280;1445;52.600;13.328;2023-11-18T01:07:43;101778.72;;;4.78;nan
2875;BME280;1445;52.600;13.328;2023-11-18T01:10:09;101781.56;;;4.84;nan
2875;BME280;1445;52.600;13.328;2023-11-18T01:12:35;101782.53;;;4.77;nan
2875;BME280;1445;52.600;13.328;2023-11-18T01:15:00;101786.53;;;4.63;nan
2875;BME280;1445;52.600;13.328;2023-11-18T01:17:25;101785.94;;;4.61;nan
2875;BME280;1445;52.600;13.328;2023-11-18T01:19:51;101789.25;;;4.63;nan
2875;BME280;1445;52.600;13.328;2023-11-18T01:22:16;101793.06;;;4.62;nan
2875;BME280;1445;52.600;13.328;2023-11-18T01:24:43;101793.44;;;4.66;nan
2875;BME280;1445;52.600;13.328;2023-11-18T01:27:09;101802.22;;;4.68;nan
2875;BME280;1445;52.600;13.328;2023-11-18T01:29:35;101800.94;;;4.82;nan
2875;BME280;1445;52.600;13.328;2023-11-18T01:32:00;101802.69;;;4.76;nan
2875;BME280;1445;52.600;13.328;2023-11-18T01:34:26;101806.50;;;4.75;nan
2875;BME280;1445;52.600;13.328;2023-11-18T01:36:51;101802.59;;;4.71;nan
2875;BME280;1445;52.600;13.328;2023-11-18T01:39:17;101806.50;;;4.75;nan
2875;BME280;1445;52.600;13.328;2023-11-18T01:41:45;101803.31;;;4.78;nan
2875;BME280;1445;52.600;13.328;2023-11-18T01:44:11;101808.97;;;4.77;nan
2875;BME280;1445;52.600;13.328;2023-11-18T01:46:38;101804.38;;;4.77;nan
2875;BME280;1445;52.600;13.328;2023-11-18T01:49:04;101803.53;;;4.77;nan
2875;BME280;1445;52.600;13.328;2023-11-18T01:51:30;101804.50;;;4.71;nan
2875;BME280;1445;52.600;13.328;2023-11-18T01:53:55;101806.16;;;4.72;nan
2875;BME280;1445;52.600;13.328;2023-11-18T01:56:22;101809.22;;;4.87;nan
2875;BME280;1445;52.600;13.328;2023-11-18T01:58:50;101810.31;;;4.74;nan
2875;BME280;1445;52.600;13.328;2023-11-18T02:01:15;101816.00;;;4.73;nan
2875;BME280;1445;52.600;13.328;2023-11-18T02:03:42;101809.34;;;4.81;nan
2875;BME280;1445;52.600;13.328;2023-11-18T02:06:08;101814.94;;;4.86;nan
2875;BME280;1445;52.600;13.328;2023-11-18T02:08:35;101822.88;;;4.75;nan
2875;BME280;1445;52.600;13.328;2023-11-18T02:11:05;101833.56;;;4.77;nan
2875;BME280;1445;52.600;13.328;2023-11-18T02:13:37;101830.63;;;4.78;nan
2875;BME280;1445;52.600;13.328;2023-11-18T02:16:04;101827.16;;;4.71;nan
2875;BME280;1445;52.600;13.328;2023-11-18T02:18:30;101826.34;;;4.83;nan
2875;BME280;1445;52.600;13.328;2023-11-18T02:20:55;101822.53;;;4.84;nan
2875;BME280;1445;52.600;13.328;2023-11-18T02:23:24;101828.97;;;4.77;nan
2875;BME280;1445;52.600;13.328;2023-11-18T02:25:51;101825.88;;;4.74;nan
2875;BME280;1445;52.600;13.328;2023-11-18T02:28:16;101827.06;;;4.78;nan
2875;BME280;1445;52.600;13.328;2023-11-18T02:30:43;101823.84;;;4.81;nan
2875;BME280;1445;52.600;13.328;2023-11-18T02:35:51;101825.38;;;4.65;nan
2875;BME280;1445;52.600;13.328;2023-11-18T02:38:22;101835.13;;;4.73;nan
2875;BME280;1445;52.600;13.328;2023-11-18T02:40:48;101828.25;;;4.70;nan
2875;BME280;1445;52.600;13.328;2023-11-18T02:43:18;101830.00;;;4.76;nan
2875;BME280;1445;52.600;13.328;2023-11-18T02:45:44;101836.81;;;4.86;nan
2875;BME280;1445;52.600;13.328;2023-11-18T02:48:09;101836.44;;;4.82;nan
2875;BME280;1445;52.600;13.328;2023-11-18T02:50:35;101831.91;;;4.88;nan
2875;BME280;1445;52.600;13.328;2023-11-18T02:53:01;101839.66;;;4.91;nan
2875;BME280;1445;52.600;13.328;2023-11-18T02:55:26;101833.00;;;4.98;nan
2875;BME280;1445;52.600;13.328;2023-11-18T02:57:51;101835.03;;;5.03;nan
2875;BME280;1445;52.600;13.328;2023-11-18T03:00:17;101829.56;;;5.03;nan
2875;BME280;1445;52.600;13.328;2023-11-18T03:02:46;101834.78;;;4.93;nan
2875;BME280;1445;52.600;13.328;2023-11-18T03:05:13;101820.41;;;4.86;nan
2875;BME280;1445;52.600;13.328;2023-11-18T03:07:39;101833.34;;;4.90;nan
2875;BME280;1445;52.600;13.328;2023-11-18T03:10:06;101821.72;;;4.83;nan
2875;BME280;1445;52.600;13.328;2023-11-18T03:12:36;101818.41;;;4.81;nan
2875;BME280;1445;52.600;13.328;2023-11-18T03:15:01;101810.66;;;4.90;nan
2875;BME280;1445;52.600;13.328;2023-11-18T03:17:27;101814.22;;;4.78;nan
2875;BME280;1445;52.600;13.328;2023-11-18T03:19:53;101818.03;;;4.77;nan
2875;BME280;1445;52.600;13.328;2023-11-18T03:22:18;101823.00;;;4.81;nan
2875;BME280;1445;52.600;13.328;2023-11-18T03:24:44;101826.69;;;4.86;nan
2875;BME280;1445;52.600;13.328;2023-11-18T03:27:09;101826.22;;;4.77;nan
2875;BME280;1445;52.600;13.328;2023-11-18T03:29:34;101825.63;;;4.75;nan
2875;BME280;1445;52.600;13.328;2023-11-18T03:32:01;101829.66;;;4.73;nan
2875;BME280;1445;52.600;13.328;2023-11-18T03:34:26;101831.44;;;4.91;nan
2875;BME280;1445;52.600;13.328;2023-11-18T03:36:52;101833.81;;;4.75;nan
2875;BME280;1445;52.600;13.328;2023-11-18T03:39:17;101824.81;;;4.75;nan
2875;BME280;1445;52.600;13.328;2023-11-18T03:41:43;101833.81;;;4.75;nan
2875;BME280;1445;52.600;13.328;2023-11-18T03:44:12;101834.91;;;4.74;nan
2875;BME280;1445;52.600;13.328;2023-11-18T03:46:37;101831.34;;;4.74;nan
2875;BME280;1445;52.600;13.328;2023-11-18T03:49:03;101834.75;;;4.69;nan
2875;BME280;1445;52.600;13.328;2023-11-18T03:51:28;101838.94;;;4.72;nan
2875;BME280;1445;52.600;13.328;2023-11-18T03:53:54;101843.19;;;4.68;nan
2875;BME280;1445;52.600;13.328;2023-11-18T03:56:19;101845.56;;;4.64;nan
2875;BME280;1445;52.600;13.328;2023-11-18T03:58:45;101837.38;;;4.64;nan
2875;BME280;1445;52.600;13.328;2023-11-18T04:01:19;101843.09;;;4.74;nan
2875;BME280;1445;52.600;13.328;2023-11-18T04:03:44;101846.66;;;4.75;nan
2875;BME280;1445;52.600;13.328;2023-11-18T04:06:09;101854.59;;;4.65;nan
2875;BME280;1445;52.600;13.328;2023-11-18T04:08:35;101852.56;;;4.72;nan
2875;BME280;1445;52.600;13.328;2023-11-18T04:11:00;101856.97;;;4.73;nan
2875;BME280;1445;52.600;13.328;2023-11-18T04:13:27;101857.22;;;4.71;nan
2875;BME280;1445;52.600;13.328;2023-11-18T04:15:52;101860.41;;;4.80;nan
2875;BME280;1445;52.600;13.328;2023-11-18T04:18:17;101858.75;;;4.91;nan
2875;BME280;1445;52.600;13.328;2023-11-18T04:20:44;101861.38;;;4.97;nan
2875;BME280;1445;52.600;13.328;2023-11-18T04:23:09;101861.38;;;4.86;nan
2875;BME280;1445;52.600;13.328;2023-11-18T04:25:36;101860.53;;;4.73;nan
2875;BME280;1445;52.600;13.328;2023-11-18T04:28:02;101868.00;;;4.66;nan
2875;BME280;1445;52.600;13.328;2023-11-18T04:30:27;101875.72;;;4.69;nan
2875;BME280;1445;52.600;13.328;2023-11-18T04:32:52;101877.41;;;4.70;nan
2875;BME280;1445;52.600;13.328;2023-11-18T04:35:19;101880.16;;;4.70;nan
2875;BME280;1445;52.600;13.328;2023-11-18T04:37:47;101879.16;;;4.65;nan
2875;BME280;1445;52.600;13.328;2023-11-18T04:40:12;101886.53;;;4.64;nan
2875;BME280;1445;52.600;13.328;2023-11-18T04:42:38;101891.13;;;4.52;nan
2875;BME280;1445;52.600;13.328;2023-11-18T04:45:03;101882.97;;;4.64;nan
2875;BME280;1445;52.600;13.328;2023-11-18T04:47:29;101882.09;;;4.51;nan
2875;BME280;1445;52.600;13.328;2023-11-18T04:49:55;101891.84;;;4.59;nan
2875;BME280;1445;52.600;13.328;2023-11-18T04:52:20;101889.72;;;4.49;nan
2875;BME280;1445;52.600;13.328;2023-11-18T04:54:45;101888.53;;;4.57;nan
2875;BME280;1445;52.600;13.328;2023-11-18T04:57:13;101893.16;;;4.57;nan
2875;BME280;1445;52.600;13.328;2023-11-18T04:59:38;101897.91;;;4.49;nan
2875;BME280;1445;52.600;13.328;2023-11-18T05:02:03;101901.31;;;4.45;nan
2875;BME280;1445;52.600;13.328;2023-11-18T05:04:29;101894.56;;;4.47;nan
2875;BME280;1445;52.600;13.328;2023-11-18T05:06:54;101899.28;;;4.40;nan
2875;BME280;1445;52.600;13.328;2023-11-18T05:09:20;101896.09;;;4.43;nan
2875;BME280;1445;52.600;13.328;2023-11-18T05:11:45;101899.78;;;4.49;nan
2875;BME280;1445;52.600;13.328;2023-11-18T05:14:11;101902.38;;;4.44;nan
2875;BME280;1445;52.600;13.328;2023-11-18T05:16:36;101899.56;;;4.50;nan
2875;BME280;1445;52.600;13.328;2023-11-18T05:19:02;101900.28;;;4.58;nan
2875;BME280;1445;52.600;13.328;2023-11-18T05:21:27;101905.75;;;4.58;nan
2875;BME280;1445;52.600;13.328;2023-11-18T05:23:53;101905.75;;;4.58;nan
2875;BME280;1445;52.600;13.328;2023-11-18T05:26:18;101901.91;;;4.47;nan
2875;BME280;1445;52.600;13.328;2023-11-18T05:28:43;101906.59;;;4.70;nan
2875;BME280;1445;52.600;13.328;2023-11-18T05:31:10;101904.47;;;4.72;nan
2875;BME280;1445;52.600;13.328;2023-11-18T05:33:35;101897.56;;;4.58;nan
2875;BME280;1445;52.600;13.328;2023-11-18T05:36:00;101902.91;;;4.64;nan
2875;BME280;1445;52.600;13.328;2023-11-18T05:38:26;101910.97;;;4.59;nan
2875;BME280;1445;52.600;13.328;2023-11-18T05:40:57;101902.09;;;4.64;nan
2875;BME280;1445;52.600;13.328;2023-11-18T05:43:25;101907.78;;;4.62;nan
2875;BME280;1445;52.600;13.328;2023-11-18T05:45:54;101902.56;;;4.61;nan
2875;BME280;1445;52.600;13.328;2023-11-18T05:48:52;101906.81;;;4.57;nan
2875;BME280;1445;52.600;13.328;2023-11-18T05:51:24;101906.66;;;4.40;nan
2875;BME280;1445;52.600;13.328;2023-11-18T05:53:50;101907.09;;;4.37;nan
2875;BME280;1445;52.600;13.328;2023-11-18T05:56:17;101909.84;;;4.37;nan
2875;BME280;1445;52.600;13.328;2023-11-18T05:58:42;101910.66;;;4.37;nan
2875;BME280;1445;52.600;13.328;2023-11-18T06:01:11;101913.72;;;4.29;nan
2875;BME280;1445;52.600;13.328;2023-11-18T06:03:37;101911.25;;;4.09;nan
2875;BME280;1445;52.600;13.328;2023-11-18T06:06:05;101908.91;;;4.13;nan
2875;BME280;1445;52.600;13.328;2023-11-18T06:08:32;101925.19;;;4.19;nan
2875;BME280;1445;52.600;13.328;2023-11-18T06:10:57;101921.84;;;4.17;nan
2875;BME280;1445;52.600;13.328;2023-11-18T06:13:23;101923.97;;;4.15;nan
2875;BME280;1445;52.600;13.328;2023-11-18T06:15:49;101921.25;;;4.15;nan
2875;BME280;1445;52.600;13.328;2023-11-18T06:18:17;101923.53;;;4.00;nan
2875;BME280;1445;52.600;13.328;2023-11-18T06:20:42;101912.63;;;4.00;nan
2875;BME280;1445;52.600;13.328;2023-11-18T06:23:07;101918.56;;;3.97;nan
2875;BME280;1445;52.600;13.328;2023-11-18T06:25:33;101923.06;;;4.03;nan
2875;BME280;1445;52.600;13.328;2023-11-18T06:28:00;101926.19;;;3.88;nan
2875;BME280;1445;52.600;13.328;2023-11-18T06:30:25;101935.53;;;3.80;nan
2875;BME280;1445;52.600;13.328;2023-11-18T06:32:51;101927.94;;;3.82;nan
2875;BME280;1445;52.600;13.328;2023-11-18T06:35:16;101937.81;;;3.83;nan
2875;BME280;1445;52.600;13.328;2023-11-18T06:37:42;101942.78;;;4.05;nan
2875;BME280;1445;52.600;13.328;2023-11-18T06:40:08;101942.72;;;4.12;nan
2875;BME280;1445;52.600;13.328;2023-11-18T06:42:44;101951.94;;;4.29;nan
2875;BME280;1445;52.600;13.328;2023-11-18T06:45:12;101952.72;;;4.18;nan
2875;BME280;1445;52.600;13.328;2023-11-18T06:47:38;101955.53;;;4.11;nan
2875;BME280;1445;52.600;13.328;2023-11-18T06:50:03;101964.56;;;3.93;nan
2875;BME280;1445;52.600;13.328;2023-11-18T06:52:29;101970.69;;;3.89;nan
2875;BME280;1445;52.600;13.328;2023-11-18T06:54:54;101970.97;;;3.80;nan
2875;BME280;1445;52.600;13.328;2023-11-18T06:57:20;101969.25;;;3.86;nan
2875;BME280;1445;52.600;13.328;2023-11-18T06:59:46;101964.19;;;3.90;nan
2875;BME280;1445;52.600;13.328;2023-11-18T07:02:12;101962.22;;;3.97;nan
2875;BME280;1445;52.600;13.328;2023-11-18T07:04:37;101962.34;;;4.02;nan
2875;BME280;1445;52.600;13.328;2023-11-18T07:07:03;101964.69;;;3.98;nan
2875;BME280;1445;52.600;13.328;2023-11-18T07:09:28;101972.25;;;3.96;nan
2875;BME280;1445;52.600;13.328;2023-11-18T07:11:54;101964.63;;;4.05;nan
2875;BME280;1445;52.600;13.328;2023-11-18T07:14:21;101972.94;;;4.10;nan
2875;BME280;1445;52.600;13.328;2023-11-18T07:16:46;101974.59;;;4.29;nan
2875;BME280;1445;52.600;13.328;2023-11-18T07:19:12;101974.28;;;4.38;nan
2875;BME280;1445;52.600;13.328;2023-11-18T07:21:45;101977.66;;;4.51;nan
2875;BME280;1445;52.600;13.328;2023-11-18T07:24:10;101986.88;;;4.69;nan
2875;BME280;1445;52.600;13.328;2023-11-18T07:26:36;101989.50;;;4.64;nan
2875;BME280;1445;52.600;13.328;2023-11-18T07:29:01;101984.94;;;4.58;nan
2875;BME280;1445;52.600;13.328;2023-11-18T07:31:27;101992.69;;;4.61;nan
2875;BME280;1445;52.600;13.328;2023-11-18T07:33:52;101995.34;;;4.67;nan
2875;BME280;1445;52.600;13.328;2023-11-18T07:36:17;102000.13;;;4.84;nan
2875;BME280;1445;52.600;13.328;2023-11-18T07:38:45;101990.78;;;4.61;nan
2875;BME280;1445;52.600;13.328;2023-11-18T07:41:10;101997.03;;;4.80;nan
2875;BME280;1445;52.600;13.328;2023-11-18T07:43:48;101998.22;;;4.84;nan
2875;BME280;1445;52.600;13.328;2023-11-18T07:46:14;102008.41;;;4.77;nan
2875;BME280;1445;52.600;13.328;2023-11-18T07:48:39;102006.38;;;4.72;nan
2875;BME280;1445;52.600;13.328;2023-11-18T07:51:05;102003.94;;;4.83;nan
2875;BME280;1445;52.600;13.328;2023-11-18T07:53:32;102007.25;;;4.54;nan
2875;BME280;1445;52.600;13.328;2023-11-18T07:55:57;102007.28;;;4.85;nan
2875;BME280;1445;52.600;13.328;2023-11-18T07:58:22;102006.84;;;4.99;nan
2875;BME280;1445;52.600;13.328;2023-11-18T08:00:48;101999.00;;;5.03;nan
2875;BME280;1445;52.600;13.328;2023-11-18T08:03:14;102006.75;;;5.18;nan
2875;BME280;1445;52.600;13.328;2023-11-18T08:08:05;102001.38;;;5.11;nan
2875;BME280;1445;52.600;13.328;2023-11-18T08:10:30;101997.63;;;5.36;nan
2875;BME280;1445;52.600;13.328;2023-11-18T08:12:57;102000.63;;;5.46;nan
2875;BME280;1445;52.600;13.328;2023-11-18T08:15:23;102001.44;;;5.35;nan
2875;BME280;1445;52.600;13.328;2023-11-18T08:17:51;101991.44;;;5.29;nan
2875;BME280;1445;52.600;13.328;2023-11-18T08:20:17;101985.28;;;5.45;nan
2875;BME280;1445;52.600;13.328;2023-11-18T08:22:42;101985.03;;;5.35;nan
2875;BME280;1445;52.600;13.328;2023-11-18T08:25:09;101983.25;;;5.29;nan
2875;BME280;1445;52.600;13.328;2023-11-18T08:27:35;101981.00;;;5.37;nan
2875;BME280;1445;52.600;13.328;2023-11-18T08:30:01;101979.09;;;5.49;nan
2875;BME280;1445;52.600;13.328;2023-11-18T08:32:26;101983.13;;;5.70;nan
2875;BME280;1445;52.600;13.328;2023-11-18T08:34:51;101969.94;;;5.67;nan
2875;BME280;1445;52.600;13.328;2023-11-18T08:37:16;101963.66;;;5.55;nan
2875;BME280;1445;52.600;13.328;2023-11-18T08:39:42;101964.22;;;5.57;nan
2875;BME280;1445;52.600;13.328;2023-11-18T08:42:07;101950.88;;;5.84;nan
2875;BME280;1445;52.600;13.328;2023-11-18T08:44:32;101960.78;;;5.97;nan
2875;BME280;1445;52.600;13.328;2023-11-18T08:46:57;101949.47;;;5.82;nan
2875;BME280;1445;52.600;13.328;2023-11-18T08:49:24;101952.78;;;5.72;nan
2875;BME280;1445;52.600;13.328;2023-11-18T08:51:50;101940.28;;;5.88;nan
2875;BME280;1445;52.600;13.328;2023-11-18T08:54:21;101950.41;;;5.99;nan
2875;BME280;1445;52.600;13.328;2023-11-18T08:56:53;101947.41;;;6.12;nan
2875;BME280;1445;52.600;13.328;2023-11-18T08:59:22;101948.34;;;6.18;nan
2875;BME280;1445;52.600;13.328;2023-11-18T09:01:53;101952.69;;;6.42;nan
2875;BME280;1445;52.600;13.328;2023-11-18T09:04:24;101950.28;;;6.46;nan
2875;BME280;1445;52.600;13.328;2023-11-18T09:06:50;101950.84;;;6.19;nan
2875;BME280;1445;52.600;13.328;2023-11-18T09:09:19;101946.25;;;6.08;nan
2875;BME280;1445;52.600;13.328;2023-11-18T09:11:51;101951.63;;;5.80;nan
2875;BME280;1445;52.600;13.328;2023-11-18T09:14:16;101965.53;;;5.78;nan
2875;BME280;1445;52.600;13.328;2023-11-18T09:16:42;101966.47;;;5.84;nan
2875;BME280;1445;52.600;13.328;2023-11-18T09:19:09;101973.13;;;5.88;nan
2875;BME280;1445;52.600;13.328;2023-11-18T09:21:34;101971.91;;;6.19;nan
2875;BME280;1445;52.600;13.328;2023-11-18T09:24:01;101976.44;;;6.54;nan
2875;BME280;1445;52.600;13.328;2023-11-18T09:26:30;101962.91;;;6.47;nan
2875;BME280;1445;52.600;13.328;2023-11-18T09:28:55;101960.06;;;6.71;nan
2875;BME280;1445;52.600;13.328;2023-11-18T09:31:20;101952.56;;;6.66;nan
2875;BME280;1445;52.600;13.328;2023-11-18T09:33:46;101952.66;;;6.71;nan
2875;BME280;1445;52.600;13.328;2023-11-18T09:36:17;101942.00;;;6.58;nan
2875;BME280;1445;52.600;13.328;2023-11-18T09:38:43;101933.94;;;6.51;nan
2875;BME280;1445;52.600;13.328;2023-11-18T09:41:11;101934.19;;;6.66;nan
2875;BME280;1445;52.600;13.328;2023-11-18T09:43:37;101916.78;;;6.73;nan
2875;BME280;1445;52.600;13.328;2023-11-18T09:46:27;101918.81;;;6.49;nan
2875;BME280;1445;52.600;13.328;2023-11-18T09:51:27;101936.06;;;6.49;nan
2875;BME280;1445;52.600;13.328;2023-11-18T09:53:55;101945.69;;;6.63;nan
2875;BME280;1445;52.600;13.328;2023-11-18T10:01:50;101944.63;;;6.24;nan
2875;BME280;1445;52.600;13.328;2023-11-18T10:04:18;101951.44;;;6.21;nan
2875;BME280;1445;52.600;13.328;2023-11-18T10:06:44;101945.63;;;6.18;nan
2875;BME280;1445;52.600;13.328;2023-11-18T10:09:11;101947.47;;;6.29;nan
2875;BME280;1445;52.600;13.328;2023-11-18T10:11:47;101941.19;;;6.29;nan
2875;BME280;1445;52.600;13.328;2023-11-18T10:14:13;101941.19;;;6.29;nan
2875;BME280;1445;52.600;13.328;2023-11-18T10:16:40;101943.56;;;6.25;nan
2875;BME280;1445;52.600;13.328;2023-11-18T10:19:08;101935.03;;;6.38;nan
2875;BME280;1445;52.600;13.328;2023-11-18T10:21:34;101928.44;;;6.22;nan
2875;BME280;1445;52.600;13.328;2023-11-18T10:24:04;101918.88;;;6.37;nan
2875;BME280;1445;52.600;13.328;2023-11-18T10:26:35;101919.56;;;6.44;nan
2875;BME280;1445;52.600;13.328;2023-11-18T10:29:03;101916.63;;;6.79;nan
2875;BME280;1445;52.600;13.328;2023-11-18T10:31:32;101916.72;;;6.39;nan
2875;BME280;1445;52.600;13.328;2023-11-18T10:34:00;101914.19;;;6.66;nan
2875;BME280;1445;52.600;13.328;2023-11-18T10:36:25;101910.13;;;6.68;nan
2875;BME280;1445;52.600;13.328;2023-11-18T10:38:51;101902.66;;;6.64;nan
2875;BME280;1445;52.600;13.328;2023-11-18T10:41:21;101912.41;;;6.43;nan
2875;BME280;1445;52.600;13.328;2023-11-18T10:43:46;101910.03;;;6.47;nan
2875;BME280;1445;52.600;13.328;2023-11-18T10:46:13;101916.53;;;6.57;nan
2875;BME280;1445;52.600;13.328;2023-11-18T10:48:47;101917.25;;;6.24;nan
2875;BME280;1445;52.600;13.328;2023-11-18T10:51:13;101918.66;;;6.27;nan
2875;BME280;1445;52.600;13.328;2023-11-18T10:53:41;101919.22;;;6.12;nan
2875;BME280;1445;52.600;13.328;2023-11-18T10:56:18;101937.25;;;6.25;nan
2875;BME280;1445;52.600;13.328;2023-11-18T10:58:50;101932.97;;;6.17;nan
2875;BME280;1445;52.600;13.328;2023-11-18T11:01:15;101927.41;;;6.12;nan
2875;BME280;1445;52.600;13.328;2023-11-18T11:04:02;101930.09;;;6.24;nan
2875;BME280;1445;52.600;13.328;2023-11-18T11:06:29;101929.44;;;6.45;nan
2875;BME280;1445;52.600;13.328;2023-11-18T11:08:56;101925.28;;;6.42;nan
2875;BME280;1445;52.600;13.328;2023-11-18T11:11:28;101925.91;;;6.61;nan
2875;BME280;1445;52.600;13.328;2023-11-18T11:14:02;101931.47;;;6.66;nan
2875;BME280;1445;52.600;13.328;2023-11-18T11:16:30;101934.13;;;6.61;nan
2875;BME280;1445;52.600;13.328;2023-11-18T11:18:59;101930.91;;;6.64;nan
2875;BME280;1445;52.600;13.328;2023-11-18T11:21:33;101932.31;;;6.67;nan
2875;BME280;1445;52.600;13.328;2023-11-18T11:29:17;101911.78;;;6.69;nan
2875;BME280;1445;52.600;13.328;2023-11-18T11:31:44;101906.00;;;6.83;nan
2875;BME280;1445;52.600;13.328;2023-11-18T11:34:19;101900.75;;;6.98;nan
2875;BME280;1445;52.600;13.328;2023-11-18T11:36:48;101901.19;;;6.90;nan
2875;BME280;1445;52.600;13.328;2023-11-18T11:39:16;101893.41;;;6.99;nan
2875;BME280;1445;52.600;13.328;2023-11-18T11:41:45;101901.75;;;6.75;nan
2875;BME280;1445;52.600;13.328;2023-11-18T11:44:15;101911.59;;;6.42;nan
2875;BME280;1445;52.600;13.328;2023-11-18T11:46:40;101909.38;;;6.28;nan
2875;BME280;1445;52.600;13.328;2023-11-18T11:49:07;101900.91;;;6.58;nan
2875;BME280;1445;52.600;13.328;2023-11-18T11:51:54;101896.84;;;6.60;nan
2875;BME280;1445;52.600;13.328;2023-11-18T11:54:27;101895.81;;;6.21;nan
2875;BME280;1445;52.600;13.328;2023-11-18T11:56:55;101893.09;;;6.21;nan
2875;BME280;1445;52.600;13.328;2023-11-18T12:02:07;101897.50;;;6.22;nan
2875;BME280;1445;52.600;13.328;2023-11-18T12:04:34;101898.03;;;6.36;nan
2875;BME280;1445;52.600;13.328;2023-11-18T12:07:03;101896.34;;;6.35;nan
2875;BME280;1445;52.600;13.328;2023-11-18T12:09:31;101891.34;;;6.15;nan
2875;BME280;1445;52.600;13.328;2023-11-18T12:12:03;101891.38;;;6.03;nan
2875;BME280;1445;52.600;13.328;2023-11-18T12:14:29;101892.69;;;6.01;nan
2875;BME280;1445;52.600;13.328;2023-11-18T12:19:29;101878.28;;;6.05;nan
2875;BME280;1445;52.600;13.328;2023-11-18T12:22:01;101859.59;;;6.02;nan
2875;BME280;1445;52.600;13.328;2023-11-18T12:24:35;101866.72;;;6.15;nan
2875;BME280;1445;52.600;13.328;2023-11-18T12:27:00;101873.63;;;6.06;nan
2875;BME280;1445;52.600;13.328;2023-11-18T12:29:32;101872.81;;;6.05;nan
2875;BME280;1445;52.600;13.328;2023-11-18T12:32:00;101871.97;;;6.05;nan
2875;BME280;1445;52.600;13.328;2023-11-18T12:37:17;101856.84;;;6.31;nan
2875;BME280;1445;52.600;13.328;2023-11-18T12:40:00;101848.75;;;6.53;nan
2875;BME280;1445;52.600;13.328;2023-11-18T12:42:52;101851.81;;;6.39;nan
2875;BME280;1445;52.600;13.328;2023-11-18T12:45:42;101842.94;;;6.32;nan
2875;BME280;1445;52.600;13.328;2023-11-18T12:48:09;101837.19;;;6.34;nan
2875;BME280;1445;52.600;13.328;2023-11-18T12:50:40;101843.75;;;6.33;nan
2875;BME280;1445;52.600;13.328;2023-11-18T12:53:06;101844.72;;;6.27;nan
2875;BME280;1445;52.600;13.328;2023-11-18T12:55:32;101842.59;;;6.29;nan
2875;BME280;1445;52.600;13.328;2023-11-18T12:57:59;101832.13;;;6.26;nan
2875;BME280;1445;52.600;13.328;2023-11-18T13:00:24;101826.84;;;6.36;nan
2875;BME280;1445;52.600;13.328;2023-11-18T13:02:53;101830.44;;;6.25;nan
2875;BME280;1445;52.600;13.328;2023-11-18T13:05:19;101823.81;;;6.20;nan
2875;BME280;1445;52.600;13.328;2023-11-18T13:07:44;101824.94;;;6.36;nan
2875;BME280;1445;52.600;13.328;2023-11-18T13:10:10;101820.91;;;6.27;nan
2875;BME280;1445;52.600;13.328;2023-11-18T13:12:40;101818.50;;;6.31;nan
2875;BME280;1445;52.600;13.328;2023-11-18T13:15:07;101819.34;;;6.14;nan
2875;BME280;1445;52.600;13.328;2023-11-18T13:17:33;101818.00;;;6.17;nan
2875;BME280;1445;52.600;13.328;2023-11-18T13:20:05;101819.16;;;6.21;nan
2875;BME280;1445;52.600;13.328;2023-11-18T13:22:37;101804.91;;;6.19;nan
2875;BME280;1445;52.600;13.328;2023-11-18T13:25:04;101814.34;;;6.28;nan
2875;BME280;1445;52.600;13.328;2023-11-18T13:27:30;101823.72;;;6.15;nan
2875;BME280;1445;52.600;13.328;2023-11-18T13:29:57;101819.63;;;6.01;nan
2875;BME280;1445;52.600;13.328;2023-11-18T13:32:23;101816.25;;;6.11;nan
2875;BME280;1445;52.600;13.328;2023-11-18T13:34:50;101813.41;;;6.06;nan
2875;BME280;1445;52.600;13.328;2023-11-18T13:37:16;101819.28;;;5.97;nan
2875;BME280;1445;52.600;13.328;2023-11-18T13:39:47;101816.34;;;6.16;nan
2875;BME280;1445;52.600;13.328;2023-11-18T13:42:20;101809.44;;;6.13;nan
2875;BME280;1445;52.600;13.328;2023-11-18T13:44:45;101800.59;;;6.23;nan
2875;BME280;1445;52.600;13.328;2023-11-18T13:47:12;101801.38;;;6.35;nan
2875;BME280;1445;52.600;13.328;2023-11-18T13:49:38;101793.97;;;6.36;nan
2875;BME280;1445;52.600;13.328;2023-11-18T13:52:07;101796.78;;;6.41;nan
2875;BME280;1445;52.600;13.328;2023-11-18T13:54:34;101787.16;;;6.38;nan
2875;BME280;1445;52.600;13.328;2023-11-18T13:57:00;101791.22;;;6.86;nan
2875;BME280;1445;52.600;13.328;2023-11-18T13:59:25;101790.38;;;6.86;nan